25°C Temp
18°C Dewpoint
65% Humidity
Temperature
11 KM/H
7 MPH
6 KTS
220°
South West

Wind Speed
Mostly Cloudy
Conditions
Pressure 1015.92 (hPa) - 30 (in)
Visibility 6.2 (mi) - 10.0 (km)

Current Conditions
LEJR
Location 25(km)
Metar :LEJR 121100Z 22006KT 160V250 9999 BKN022 BKN036 25/18 Q1016
Wed 12th August 13:00 pm

Airport
  Metar Aviation API Data Provided by https://www.checkwx.com/ PHP scripts by weather34.com ©2020